sensor_id;sensor_type;location;lat;lon;timestamp;pressure;altitude;pressure_sealevel;temperature;humidity
54936;BME280;40838;50.676;7.838;2023-02-23T00:01:49;97928.56;;;7.07;100.00
54936;BME280;40838;50.676;7.838;2023-02-23T00:04:16;97929.38;;;7.03;100.00
54936;BME280;40838;50.676;7.838;2023-02-23T00:06:43;97934.94;;;7.11;100.00
54936;BME280;40838;50.676;7.838;2023-02-23T00:09:10;97929.41;;;7.08;100.00
54936;BME280;40838;50.676;7.838;2023-02-23T00:11:48;97929.38;;;7.13;100.00
54936;BME280;40838;50.676;7.838;2023-02-23T00:14:17;97925.94;;;7.07;100.00
54936;BME280;40838;50.676;7.838;2023-02-23T00:16:47;97928.63;;;7.28;100.00
54936;BME280;40838;50.676;7.838;2023-02-23T00:19:14;97929.13;;;7.20;100.00
54936;BME280;40838;50.676;7.838;2023-02-23T00:21:41;97926.47;;;7.09;100.00
54936;BME280;40838;50.676;7.838;2023-02-23T00:24:12;97924.38;;;7.42;100.00
54936;BME280;40838;50.676;7.838;2023-02-23T00:26:40;97919.28;;;6.84;100.00
54936;BME280;40838;50.676;7.838;2023-02-23T00:29:12;97925.00;;;6.40;100.00
54936;BME280;40838;50.676;7.838;2023-02-23T00:31:41;97922.03;;;5.79;100.00
54936;BME280;40838;50.676;7.838;2023-02-23T00:34:11;97920.00;;;6.54;100.00
54936;BME280;40838;50.676;7.838;2023-02-23T00:36:38;97918.22;;;6.96;100.00
54936;BME280;40838;50.676;7.838;2023-02-23T00:39:06;97916.09;;;6.92;100.00
54936;BME280;40838;50.676;7.838;2023-02-23T00:41:44;97915.13;;;6.20;100.00
54936;BME280;40838;50.676;7.838;2023-02-23T00:44:12;97918.22;;;5.65;100.00
54936;BME280;40838;50.676;7.838;2023-02-23T00:46:40;97917.13;;;5.61;100.00
54936;BME280;40838;50.676;7.838;2023-02-23T00:49:09;97908.59;;;6.43;100.00
54936;BME280;40838;50.676;7.838;2023-02-23T00:51:37;97913.75;;;6.13;100.00
54936;BME280;40838;50.676;7.838;2023-02-23T00:54:05;97916.38;;;6.02;100.00
54936;BME280;40838;50.676;7.838;2023-02-23T00:56:33;97915.34;;;6.14;100.00
54936;BME280;40838;50.676;7.838;2023-02-23T00:59:00;97918.13;;;6.55;100.00
54936;BME280;40838;50.676;7.838;2023-02-23T01:01:28;97908.13;;;6.62;100.00
54936;BME280;40838;50.676;7.838;2023-02-23T01:03:55;97912.13;;;6.80;100.00
54936;BME280;40838;50.676;7.838;2023-02-23T01:06:24;97906.59;;;6.81;100.00
54936;BME280;40838;50.676;7.838;2023-02-23T01:08:51;97911.09;;;6.96;100.00
54936;BME280;40838;50.676;7.838;2023-02-23T01:11:22;97913.09;;;6.38;100.00
54936;BME280;40838;50.676;7.838;2023-02-23T01:13:55;97913.03;;;6.28;100.00
54936;BME280;40838;50.676;7.838;2023-02-23T01:16:27;97906.38;;;6.15;100.00
54936;BME280;40838;50.676;7.838;2023-02-23T01:19:04;97914.63;;;6.29;100.00
54936;BME280;40838;50.676;7.838;2023-02-23T01:21:32;97908.16;;;6.92;100.00
54936;BME280;40838;50.676;7.838;2023-02-23T01:24:00;97906.63;;;7.17;100.00
54936;BME280;40838;50.676;7.838;2023-02-23T01:26:29;97899.75;;;7.26;100.00
54936;BME280;40838;50.676;7.838;2023-02-23T01:28:58;97897.63;;;7.38;100.00
54936;BME280;40838;50.676;7.838;2023-02-23T01:31:27;97905.28;;;6.06;100.00
54936;BME280;40838;50.676;7.838;2023-02-23T01:33:56;97905.38;;;5.84;100.00
54936;BME280;40838;50.676;7.838;2023-02-23T01:36:24;97902.41;;;6.22;100.00
54936;BME280;40838;50.676;7.838;2023-02-23T01:38:54;97906.81;;;6.69;100.00
54936;BME280;40838;50.676;7.838;2023-02-23T01:41:21;97905.53;;;6.82;100.00
54936;BME280;40838;50.676;7.838;2023-02-23T01:43:56;97899.69;;;6.85;100.00
54936;BME280;40838;50.676;7.838;2023-02-23T01:46:25;97901.81;;;6.83;100.00
54936;BME280;40838;50.676;7.838;2023-02-23T01:48:54;97891.19;;;6.68;100.00
54936;BME280;40838;50.676;7.838;2023-02-23T01:51:24;97896.00;;;6.81;100.00
54936;BME280;40838;50.676;7.838;2023-02-23T01:53:55;97897.72;;;6.40;100.00
54936;BME280;40838;50.676;7.838;2023-02-23T01:56:30;97899.91;;;5.95;100.00
54936;BME280;40838;50.676;7.838;2023-02-23T01:59:02;97890.41;;;5.94;100.00
54936;BME280;40838;50.676;7.838;2023-02-23T02:01:30;97892.00;;;6.79;100.00
54936;BME280;40838;50.676;7.838;2023-02-23T02:04:01;97890.19;;;6.84;100.00
54936;BME280;40838;50.676;7.838;2023-02-23T02:06:34;97893.50;;;6.39;100.00
54936;BME280;40838;50.676;7.838;2023-02-23T02:09:04;97891.53;;;6.09;100.00
54936;BME280;40838;50.676;7.838;2023-02-23T02:11:35;97888.31;;;6.85;100.00
54936;BME280;40838;50.676;7.838;2023-02-23T02:14:06;97879.31;;;6.76;100.00
54936;BME280;40838;50.676;7.838;2023-02-23T02:16:53;97882.19;;;6.69;100.00
54936;BME280;40838;50.676;7.838;2023-02-23T02:19:52;97881.69;;;6.77;100.00
54936;BME280;40838;50.676;7.838;2023-02-23T02:22:42;97884.50;;;6.35;100.00
54936;BME280;40838;50.676;7.838;2023-02-23T02:25:35;97875.81;;;6.55;100.00
54936;BME280;40838;50.676;7.838;2023-02-23T02:28:28;97879.00;;;6.57;100.00
54936;BME280;40838;50.676;7.838;2023-02-23T02:34:24;97873.53;;;6.11;100.00
54936;BME280;40838;50.676;7.838;2023-02-23T02:39:57;97874.44;;;6.37;100.00
54936;BME280;40838;50.676;7.838;2023-02-23T02:42:51;97864.94;;;6.51;100.00
54936;BME280;40838;50.676;7.838;2023-02-23T02:45:25;97868.84;;;6.23;100.00
54936;BME280;40838;50.676;7.838;2023-02-23T02:47:57;97867.81;;;6.34;100.00
54936;BME280;40838;50.676;7.838;2023-02-23T02:50:35;97863.03;;;6.31;100.00
54936;BME280;40838;50.676;7.838;2023-02-23T02:53:15;97868.84;;;6.28;100.00
54936;BME280;40838;50.676;7.838;2023-02-23T02:55:51;97871.88;;;5.89;100.00
54936;BME280;40838;50.676;7.838;2023-02-23T02:58:21;97864.72;;;6.58;100.00
54936;BME280;40838;50.676;7.838;2023-02-23T03:00:50;97866.59;;;6.88;100.00
54936;BME280;40838;50.676;7.838;2023-02-23T03:03:37;97873.75;;;6.92;100.00
54936;BME280;40838;50.676;7.838;2023-02-23T03:06:26;97868.44;;;6.92;100.00
54936;BME280;40838;50.676;7.838;2023-02-23T03:09:24;97860.97;;;6.43;100.00
54936;BME280;40838;50.676;7.838;2023-02-23T03:12:20;97866.72;;;6.20;100.00
54936;BME280;40838;50.676;7.838;2023-02-23T03:15:21;97869.59;;;6.08;100.00
54936;BME280;40838;50.676;7.838;2023-02-23T03:18:15;97866.72;;;6.20;100.00
54936;BME280;40838;50.676;7.838;2023-02-23T03:21:13;97866.88;;;6.81;100.00
54936;BME280;40838;50.676;7.838;2023-02-23T03:24:05;97867.38;;;6.68;100.00
54936;BME280;40838;50.676;7.838;2023-02-23T03:27:01;97864.16;;;6.40;100.00
54936;BME280;40838;50.676;7.838;2023-02-23T03:29:52;97865.53;;;7.04;100.00
54936;BME280;40838;50.676;7.838;2023-02-23T03:32:44;97873.47;;;6.74;100.00
54936;BME280;40838;50.676;7.838;2023-02-23T03:35:33;97869.25;;;6.88;100.00
54936;BME280;40838;50.676;7.838;2023-02-23T03:38:25;97863.03;;;6.31;100.00
54936;BME280;40838;50.676;7.838;2023-02-23T03:41:14;97872.72;;;6.00;100.00
54936;BME280;40838;50.676;7.838;2023-02-23T03:44:05;97866.78;;;6.40;100.00
54936;BME280;40838;50.676;7.838;2023-02-23T03:46:55;97860.19;;;6.48;100.00
54936;BME280;40838;50.676;7.838;2023-02-23T03:49:44;97865.81;;;6.92;100.00
54936;BME280;40838;50.676;7.838;2023-02-23T03:52:47;97866.34;;;7.05;100.00
54936;BME280;40838;50.676;7.838;2023-02-23T03:55:36;97870.56;;;6.70;100.00
54936;BME280;40838;50.676;7.838;2023-02-23T03:58:27;97864.97;;;6.56;100.00
54936;BME280;40838;50.676;7.838;2023-02-23T04:01:15;97863.69;;;7.10;100.00
54936;BME280;40838;50.676;7.838;2023-02-23T04:04:03;97868.19;;;7.55;100.00
54936;BME280;40838;50.676;7.838;2023-02-23T04:06:48;97867.97;;;7.26;100.00
54936;BME280;40838;50.676;7.838;2023-02-23T04:09:34;97868.72;;;7.42;100.00
54936;BME280;40838;50.676;7.838;2023-02-23T04:12:22;97866.88;;;7.53;100.00
54936;BME280;40838;50.676;7.838;2023-02-23T04:15:13;97874.53;;;6.78;100.00
54936;BME280;40838;50.676;7.838;2023-02-23T04:17:40;97874.59;;;7.29;100.00
54936;BME280;40838;50.676;7.838;2023-02-23T04:20:10;97869.28;;;7.49;100.00
54936;BME280;40838;50.676;7.838;2023-02-23T04:22:43;97876.72;;;7.37;100.00
54936;BME280;40838;50.676;7.838;2023-02-23T04:25:10;97875.09;;;7.05;100.00
54936;BME280;40838;50.676;7.838;2023-02-23T04:27:38;97874.56;;;7.39;100.00
54936;BME280;40838;50.676;7.838;2023-02-23T04:30:07;97880.84;;;6.66;100.00
54936;BME280;40838;50.676;7.838;2023-02-23T04:32:36;97876.94;;;7.20;100.00
54936;BME280;40838;50.676;7.838;2023-02-23T04:35:10;97879.06;;;7.18;100.00
54936;BME280;40838;50.676;7.838;2023-02-23T04:37:37;97871.91;;;7.24;100.00
54936;BME280;40838;50.676;7.838;2023-02-23T04:40:05;97877.97;;;7.19;100.00
54936;BME280;40838;50.676;7.838;2023-02-23T04:42:52;97878.56;;;7.26;100.00
54936;BME280;40838;50.676;7.838;2023-02-23T04:45:20;97880.91;;;7.48;100.00
54936;BME280;40838;50.676;7.838;2023-02-23T04:47:50;97886.50;;;7.11;100.00
54936;BME280;40838;50.676;7.838;2023-02-23T04:50:19;97887.00;;;6.98;100.00
54936;BME280;40838;50.676;7.838;2023-02-23T04:52:46;97882.94;;;6.54;100.00
54936;BME280;40838;50.676;7.838;2023-02-23T04:55:16;97880.91;;;6.92;100.00
54936;BME280;40838;50.676;7.838;2023-02-23T04:57:43;97884.63;;;6.96;100.00
54936;BME280;40838;50.676;7.838;2023-02-23T05:00:11;97885.44;;;7.48;100.00
54936;BME280;40838;50.676;7.838;2023-02-23T05:02:38;97885.41;;;7.07;100.00
54936;BME280;40838;50.676;7.838;2023-02-23T05:05:07;97888.09;;;7.27;100.00
54936;BME280;40838;50.676;7.838;2023-02-23T05:07:36;97888.34;;;7.51;100.00
54936;BME280;40838;50.676;7.838;2023-02-23T05:10:11;97885.44;;;7.37;100.00
54936;BME280;40838;50.676;7.838;2023-02-23T05:12:39;97892.31;;;7.38;100.00
54936;BME280;40838;50.676;7.838;2023-02-23T05:15:06;97883.28;;;7.65;100.00
54936;BME280;40838;50.676;7.838;2023-02-23T05:17:37;97886.44;;;7.77;100.00
54936;BME280;40838;50.676;7.838;2023-02-23T05:20:06;97895.19;;;7.73;100.00
54936;BME280;40838;50.676;7.838;2023-02-23T05:22:33;97890.97;;;7.72;100.00
54936;BME280;40838;50.676;7.838;2023-02-23T05:25:04;97885.44;;;7.63;100.00
54936;BME280;40838;50.676;7.838;2023-02-23T05:27:32;97887.81;;;7.13;100.00
54936;BME280;40838;50.676;7.838;2023-02-23T05:30:07;97887.81;;;7.39;100.00
54936;BME280;40838;50.676;7.838;2023-02-23T05:32:39;97888.88;;;7.38;100.00
54936;BME280;40838;50.676;7.838;2023-02-23T05:35:09;97892.88;;;7.41;100.00
54936;BME280;40838;50.676;7.838;2023-02-23T05:37:40;97894.69;;;7.60;100.00
54936;BME280;40838;50.676;7.838;2023-02-23T05:40:09;97890.22;;;7.41;100.00
54936;BME280;40838;50.676;7.838;2023-02-23T05:42:36;97888.34;;;7.41;100.00
54936;BME280;40838;50.676;7.838;2023-02-23T05:45:06;97887.28;;;7.57;100.00
54936;BME280;40838;50.676;7.838;2023-02-23T05:47:35;97889.13;;;7.57;100.00
54936;BME280;40838;50.676;7.838;2023-02-23T05:50:08;97890.16;;;7.71;100.00
54936;BME280;40838;50.676;7.838;2023-02-23T05:52:36;97895.78;;;7.54;100.00
54936;BME280;40838;50.676;7.838;2023-02-23T05:55:09;97896.53;;;7.60;100.00
54936;BME280;40838;50.676;7.838;2023-02-23T05:57:36;97898.69;;;7.53;100.00
54936;BME280;40838;50.676;7.838;2023-02-23T06:00:04;97899.19;;;7.24;100.00
54936;BME280;40838;50.676;7.838;2023-02-23T06:02:31;97906.09;;;7.35;100.00
54936;BME280;40838;50.676;7.838;2023-02-23T06:05:09;97899.19;;;7.24;100.00
54936;BME280;40838;50.676;7.838;2023-02-23T06:07:36;97893.13;;;7.54;100.00
54936;BME280;40838;50.676;7.838;2023-02-23T06:10:08;97897.84;;;7.63;100.00
54936;BME280;40838;50.676;7.838;2023-02-23T06:12:35;97897.34;;;7.50;100.00
54936;BME280;40838;50.676;7.838;2023-02-23T06:15:02;97896.81;;;7.28;100.00
54936;BME280;40838;50.676;7.838;2023-02-23T06:17:29;97896.28;;;7.21;100.00
54936;BME280;40838;50.676;7.838;2023-02-23T06:19:56;97904.50;;;7.55;100.00
54936;BME280;40838;50.676;7.838;2023-02-23T06:22:29;97898.13;;;7.61;100.00
54936;BME280;40838;50.676;7.838;2023-02-23T06:24:56;97904.78;;;7.43;100.00
54936;BME280;40838;50.676;7.838;2023-02-23T06:27:24;97909.25;;;7.68;100.00
54936;BME280;40838;50.676;7.838;2023-02-23T06:29:51;97910.56;;;7.71;100.00
54936;BME280;40838;50.676;7.838;2023-02-23T06:32:18;97908.75;;;7.41;100.00
54936;BME280;40838;50.676;7.838;2023-02-23T06:34:50;97906.63;;;7.58;100.00
54936;BME280;40838;50.676;7.838;2023-02-23T06:37:16;97917.50;;;7.67;100.00
54936;BME280;40838;50.676;7.838;2023-02-23T06:39:43;97916.66;;;7.71;100.00
54936;BME280;40838;50.676;7.838;2023-02-23T06:42:11;97912.41;;;7.86;100.00
54936;BME280;40838;50.676;7.838;2023-02-23T06:44:39;97909.53;;;7.56;100.00
54936;BME280;40838;50.676;7.838;2023-02-23T06:47:06;97923.53;;;7.77;100.00
54936;BME280;40838;50.676;7.838;2023-02-23T06:49:33;97921.44;;;7.90;100.00
54936;BME280;40838;50.676;7.838;2023-02-23T06:52:03;97920.91;;;7.82;100.00
54936;BME280;40838;50.676;7.838;2023-02-23T06:54:31;97921.13;;;8.01;100.00
54936;BME280;40838;50.676;7.838;2023-02-23T06:56:58;97931.75;;;8.01;100.00
54936;BME280;40838;50.676;7.838;2023-02-23T06:59:25;97931.50;;;7.88;100.00
54936;BME280;40838;50.676;7.838;2023-02-23T07:01:56;97932.31;;;7.63;100.00
54936;BME280;40838;50.676;7.838;2023-02-23T07:04:23;97932.25;;;6.86;100.00
54936;BME280;40838;50.676;7.838;2023-02-23T07:06:50;97940.56;;;7.35;100.00
54936;BME280;40838;50.676;7.838;2023-02-23T07:09:17;97935.25;;;7.61;100.00
54936;BME280;40838;50.676;7.838;2023-02-23T07:11:44;97940.28;;;7.68;100.00
54936;BME280;40838;50.676;7.838;2023-02-23T07:14:11;97946.91;;;7.65;100.00
54936;BME280;40838;50.676;7.838;2023-02-23T07:16:38;97944.25;;;7.65;100.00
54936;BME280;40838;50.676;7.838;2023-02-23T07:19:06;97944.53;;;7.53;100.00
54936;BME280;40838;50.676;7.838;2023-02-23T07:21:33;97951.66;;;7.22;100.00
54936;BME280;40838;50.676;7.838;2023-02-23T07:24:00;97961.19;;;7.08;100.00
54936;BME280;40838;50.676;7.838;2023-02-23T07:26:27;97965.09;;;6.85;100.00
54936;BME280;40838;50.676;7.838;2023-02-23T07:28:54;97964.31;;;6.94;100.00
54936;BME280;40838;50.676;7.838;2023-02-23T07:31:21;97971.69;;;6.77;100.00
54936;BME280;40838;50.676;7.838;2023-02-23T07:33:48;97969.09;;;7.13;100.00
54936;BME280;40838;50.676;7.838;2023-02-23T07:36:17;97973.91;;;7.21;100.00
54936;BME280;40838;50.676;7.838;2023-02-23T07:38:44;97971.78;;;7.08;100.00
54936;BME280;40838;50.676;7.838;2023-02-23T07:41:11;97972.09;;;7.32;100.00
54936;BME280;40838;50.676;7.838;2023-02-23T07:43:38;97973.94;;;7.36;100.00
54936;BME280;40838;50.676;7.838;2023-02-23T07:46:05;97974.69;;;7.16;100.00
54936;BME280;40838;50.676;7.838;2023-02-23T07:48:32;97980.06;;;7.37;100.00
54936;BME280;40838;50.676;7.838;2023-02-23T07:50:59;97982.94;;;7.51;100.00
54936;BME280;40838;50.676;7.838;2023-02-23T07:53:29;97975.25;;;7.39;100.00
54936;BME280;40838;50.676;7.838;2023-02-23T07:55:56;97979.22;;;7.36;100.00
54936;BME280;40838;50.676;7.838;2023-02-23T07:58:23;97987.22;;;7.52;100.00
54936;BME280;40838;50.676;7.838;2023-02-23T08:00:50;97982.09;;;7.14;100.00
54936;BME280;40838;50.676;7.838;2023-02-23T08:03:17;97992.03;;;6.14;100.00
54936;BME280;40838;50.676;7.838;2023-02-23T08:05:46;97989.09;;;6.63;100.00
54936;BME280;40838;50.676;7.838;2023-02-23T08:08:13;97989.47;;;6.97;100.00
54936;BME280;40838;50.676;7.838;2023-02-23T08:10:41;97995.03;;;6.96;100.00
54936;BME280;40838;50.676;7.838;2023-02-23T08:13:08;97990.25;;;6.82;100.00
54936;BME280;40838;50.676;7.838;2023-02-23T08:15:36;97984.72;;;7.04;100.00
54936;BME280;40838;50.676;7.838;2023-02-23T08:18:03;97995.59;;;7.13;100.00
54936;BME280;40838;50.676;7.838;2023-02-23T08:20:31;97994.53;;;7.09;100.00
54936;BME280;40838;50.676;7.838;2023-02-23T08:22:58;97994.56;;;7.14;100.00
54936;BME280;40838;50.676;7.838;2023-02-23T08:25:29;97995.59;;;7.13;100.00
54936;BME280;40838;50.676;7.838;2023-02-23T08:27:57;98006.63;;;6.74;100.00
54936;BME280;40838;50.676;7.838;2023-02-23T08:30:29;98002.72;;;7.07;100.00
54936;BME280;40838;50.676;7.838;2023-02-23T08:33:10;98013.78;;;6.74;100.00
54936;BME280;40838;50.676;7.838;2023-02-23T08:35:37;98008.22;;;6.80;100.00
54936;BME280;40838;50.676;7.838;2023-02-23T08:38:04;98000.09;;;7.07;100.00
54936;BME280;40838;50.676;7.838;2023-02-23T08:40:32;98008.34;;;7.21;100.00
54936;BME280;40838;50.676;7.838;2023-02-23T08:43:00;98012.56;;;7.17;100.00
54936;BME280;40838;50.676;7.838;2023-02-23T08:45:28;98013.28;;;6.87;100.00
54936;BME280;40838;50.676;7.838;2023-02-23T08:47:56;98013.38;;;7.23;100.00
54936;BME280;40838;50.676;7.838;2023-02-23T08:50:23;98017.03;;;7.01;100.00
54936;BME280;40838;50.676;7.838;2023-02-23T08:52:53;98017.31;;;7.00;100.00
54936;BME280;40838;50.676;7.838;2023-02-23T08:55:19;98016.44;;;6.79;100.00
54936;BME280;40838;50.676;7.838;2023-02-23T08:57:54;98019.31;;;6.72;100.00
54936;BME280;40838;50.676;7.838;2023-02-23T09:00:22;98023.41;;;6.37;100.00
54936;BME280;40838;50.676;7.838;2023-02-23T09:02:49;98024.84;;;6.13;100.00
54936;BME280;40838;50.676;7.838;2023-02-23T09:05:16;98025.84;;;6.54;100.00
54936;BME280;40838;50.676;7.838;2023-02-23T09:07:44;98036.13;;;6.45;100.00
54936;BME280;40838;50.676;7.838;2023-02-23T09:10:35;98034.28;;;7.14;100.00
54936;BME280;40838;50.676;7.838;2023-02-23T09:13:04;98032.84;;;6.76;100.00
54936;BME280;40838;50.676;7.838;2023-02-23T09:15:34;98032.66;;;7.03;100.00
54936;BME280;40838;50.676;7.838;2023-02-23T09:18:03;98041.00;;;6.69;100.00
54936;BME280;40838;50.676;7.838;2023-02-23T09:20:30;98043.75;;;6.84;100.00
54936;BME280;40838;50.676;7.838;2023-02-23T09:23:00;98038.69;;;6.83;100.00
54936;BME280;40838;50.676;7.838;2023-02-23T09:25:27;98047.25;;;7.05;100.00
54936;BME280;40838;50.676;7.838;2023-02-23T09:27:56;98045.34;;;6.96;100.00
54936;BME280;40838;50.676;7.838;2023-02-23T09:30:25;98047.41;;;6.83;100.00
54936;BME280;40838;50.676;7.838;2023-02-23T09:32:55;98044.38;;;7.17;100.00
54936;BME280;40838;50.676;7.838;2023-02-23T09:35:25;98048.84;;;7.11;100.00
54936;BME280;40838;50.676;7.838;2023-02-23T09:37:54;98043.91;;;7.51;100.00
54936;BME280;40838;50.676;7.838;2023-02-23T09:40:28;98043.66;;;7.52;100.00
54936;BME280;40838;50.676;7.838;2023-02-23T09:43:02;98053.47;;;7.57;100.00
54936;BME280;40838;50.676;7.838;2023-02-23T09:45:38;98048.69;;;7.44;100.00
54936;BME280;40838;50.676;7.838;2023-02-23T09:48:15;98054.00;;;7.74;100.00
54936;BME280;40838;50.676;7.838;2023-02-23T09:50:46;98051.63;;;7.63;100.00
54936;BME280;40838;50.676;7.838;2023-02-23T09:53:28;98053.97;;;7.28;100.00
54936;BME280;40838;50.676;7.838;2023-02-23T09:55:58;98061.44;;;7.62;100.00
54936;BME280;40838;50.676;7.838;2023-02-23T09:58:26;98061.97;;;7.79;100.00
54936;BME280;40838;50.676;7.838;2023-02-23T10:01:26;98063.66;;;7.07;100.00
54936;BME280;40838;50.676;7.838;2023-02-23T10:04:06;98063.31;;;7.82;100.00
54936;BME280;40838;50.676;7.838;2023-02-23T10:06:44;98067.56;;;7.98;100.00
54936;BME280;40838;50.676;7.838;2023-02-23T10:09:17;98064.59;;;7.54;100.00
54936;BME280;40838;50.676;7.838;2023-02-23T10:11:52;98073.59;;;7.48;100.00
54936;BME280;40838;50.676;7.838;2023-02-23T10:14:34;98066.88;;;7.25;100.00
54936;BME280;40838;50.676;7.838;2023-02-23T10:17:12;98066.47;;;7.69;100.00
54936;BME280;40838;50.676;7.838;2023-02-23T10:19:52;98078.59;;;7.29;100.00
54936;BME280;40838;50.676;7.838;2023-02-23T10:22:31;98077.84;;;7.44;100.00
54936;BME280;40838;50.676;7.838;2023-02-23T10:25:02;98068.81;;;7.45;100.00
54936;BME280;40838;50.676;7.838;2023-02-23T10:27:36;98074.94;;;7.55;100.00
54936;BME280;40838;50.676;7.838;2023-02-23T10:30:15;98075.06;;;7.08;100.00
54936;BME280;40838;50.676;7.838;2023-02-23T10:32:49;98072.94;;;7.05;100.00
54936;BME280;40838;50.676;7.838;2023-02-23T10:35:19;98076.97;;;7.23;100.00
54936;BME280;40838;50.676;7.838;2023-02-23T10:37:47;98077.56;;;7.45;100.00
54936;BME280;40838;50.676;7.838;2023-02-23T10:40:17;98081.16;;;7.08;100.00
54936;BME280;40838;50.676;7.838;2023-02-23T10:42:46;98089.16;;;6.66;100.00
54936;BME280;40838;50.676;7.838;2023-02-23T10:45:14;98087.81;;;6.58;100.00
54936;BME280;40838;50.676;7.838;2023-02-23T10:47:44;98081.09;;;6.40;100.00
54936;BME280;40838;50.676;7.838;2023-02-23T10:50:13;98087.22;;;6.99;100.00
54936;BME280;40838;50.676;7.838;2023-02-23T10:52:44;98086.41;;;6.98;100.00
54936;BME280;40838;50.676;7.838;2023-02-23T10:55:21;98092.41;;;6.73;100.00
54936;BME280;40838;50.676;7.838;2023-02-23T10:57:50;98096.41;;;6.86;100.00
54936;BME280;40838;50.676;7.838;2023-02-23T11:00:27;98094.66;;;6.54;100.00
54936;BME280;40838;50.676;7.838;2023-02-23T11:02:55;98086.94;;;6.47;100.00
54936;BME280;40838;50.676;7.838;2023-02-23T11:05:35;98087.69;;;6.85;100.00
54936;BME280;40838;50.676;7.838;2023-02-23T11:08:18;98094.03;;;6.84;100.00
54936;BME280;40838;50.676;7.838;2023-02-23T11:11:02;98097.94;;;7.39;100.00
54936;BME280;40838;50.676;7.838;2023-02-23T11:13:37;98099.03;;;7.44;100.00
54936;BME280;40838;50.676;7.838;2023-02-23T11:16:07;98103.75;;;7.26;100.00
54936;BME280;40838;50.676;7.838;2023-02-23T11:18:36;98091.63;;;7.51;100.00
54936;BME280;40838;50.676;7.838;2023-02-23T11:21:08;98091.78;;;7.13;100.00
54936;BME280;40838;50.676;7.838;2023-02-23T11:23:39;98095.19;;;7.09;100.00
54936;BME280;40838;50.676;7.838;2023-02-23T11:26:20;98092.53;;;6.99;100.00
54936;BME280;40838;50.676;7.838;2023-02-23T11:28:51;98089.50;;;7.48;100.00
54936;BME280;40838;50.676;7.838;2023-02-23T11:31:20;98087.09;;;7.41;100.00
54936;BME280;40838;50.676;7.838;2023-02-23T11:33:52;98087.38;;;7.34;100.00
54936;BME280;40838;50.676;7.838;2023-02-23T11:36:26;98085.69;;;7.18;100.00
54936;BME280;40838;50.676;7.838;2023-02-23T11:39:06;98082.50;;;7.21;100.00
54936;BME280;40838;50.676;7.838;2023-02-23T11:41:34;98078.81;;;7.22;100.00
54936;BME280;40838;50.676;7.838;2023-02-23T11:44:03;98078.50;;;7.08;100.00
54936;BME280;40838;50.676;7.838;2023-02-23T11:46:37;98077.06;;;7.53;100.00
54936;BME280;40838;50.676;7.838;2023-02-23T11:49:05;98078.66;;;7.54;100.00
54936;BME280;40838;50.676;7.838;2023-02-23T11:51:36;98077.03;;;7.48;100.00
54936;BME280;40838;50.676;7.838;2023-02-23T11:54:06;98075.03;;;7.03;100.00
54936;BME280;40838;50.676;7.838;2023-02-23T11:56:56;98074.66;;;7.42;100.00
54936;BME280;40838;50.676;7.838;2023-02-23T11:59:29;98074.31;;;7.23;100.00
54936;BME280;40838;50.676;7.838;2023-02-23T12:02:19;98075.31;;;7.06;100.00
54936;BME280;40838;50.676;7.838;2023-02-23T12:04:49;98078.97;;;6.95;100.00
54936;BME280;40838;50.676;7.838;2023-02-23T12:07:40;98077.88;;;6.86;100.00
54936;BME280;40838;50.676;7.838;2023-02-23T12:10:18;98073.88;;;6.31;100.00
54936;BME280;40838;50.676;7.838;2023-02-23T12:12:57;98076.06;;;6.39;100.00
54936;BME280;40838;50.676;7.838;2023-02-23T12:15:31;98077.78;;;6.65;100.00
54936;BME280;40838;50.676;7.838;2023-02-23T12:18:22;98068.59;;;6.78;100.00
54936;BME280;40838;50.676;7.838;2023-02-23T12:20:53;98065.00;;;7.10;100.00
54936;BME280;40838;50.676;7.838;2023-02-23T12:23:24;98064.75;;;7.11;100.00
54936;BME280;40838;50.676;7.838;2023-02-23T12:25:56;98071.66;;;7.18;100.00
54936;BME280;40838;50.676;7.838;2023-02-23T12:28:27;98066.72;;;7.77;100.00
54936;BME280;40838;50.676;7.838;2023-02-23T12:30:59;98060.88;;;7.60;100.00
54936;BME280;40838;50.676;7.838;2023-02-23T12:33:32;98071.25;;;7.72;100.00
54936;BME280;40838;50.676;7.838;2023-02-23T12:36:02;98067.28;;;7.90;100.00
54936;BME280;40838;50.676;7.838;2023-02-23T12:38:38;98069.16;;;6.96;100.00
54936;BME280;40838;50.676;7.838;2023-02-23T12:41:13;98060.66;;;7.82;100.00
54936;BME280;40838;50.676;7.838;2023-02-23T12:43:46;98059.59;;;7.93;100.00
54936;BME280;40838;50.676;7.838;2023-02-23T12:46:18;98060.63;;;7.61;100.00
54936;BME280;40838;50.676;7.838;2023-02-23T12:48:54;98057.13;;;7.30;100.00
54936;BME280;40838;50.676;7.838;2023-02-23T12:51:30;98056.41;;;7.60;100.00
54936;BME280;40838;50.676;7.838;2023-02-23T12:53:59;98059.06;;;7.96;100.00
54936;BME280;40838;50.676;7.838;2023-02-23T12:56:38;98055.06;;;7.89;100.00
54936;BME280;40838;50.676;7.838;2023-02-23T12:59:34;98060.00;;;7.13;100.00
54936;BME280;40838;50.676;7.838;2023-02-23T13:02:11;98052.41;;;8.14;100.00
54936;BME280;40838;50.676;7.838;2023-02-23T13:05:03;98049.75;;;7.48;100.00
54936;BME280;40838;50.676;7.838;2023-02-23T13:07:42;98048.41;;;6.62;100.00
54936;BME280;40838;50.676;7.838;2023-02-23T13:10:19;98052.03;;;7.13;100.00
54936;BME280;40838;50.676;7.838;2023-02-23T13:12:57;98043.56;;;7.11;100.00
54936;BME280;40838;50.676;7.838;2023-02-23T13:15:39;98050.44;;;7.18;100.00
54936;BME280;40838;50.676;7.838;2023-02-23T13:18:18;98049.84;;;6.90;100.00
54936;BME280;40838;50.676;7.838;2023-02-23T13:20:51;98055.34;;;6.73;100.00
54936;BME280;40838;50.676;7.838;2023-02-23T13:23:27;98059.50;;;5.84;100.00
54936;BME280;40838;50.676;7.838;2023-02-23T13:26:06;98058.97;;;6.19;100.00
54936;BME280;40838;50.676;7.838;2023-02-23T13:28:47;98058.28;;;6.34;100.00
54936;BME280;40838;50.676;7.838;2023-02-23T13:31:22;98055.91;;;6.33;100.00
54936;BME280;40838;50.676;7.838;2023-02-23T13:33:51;98057.97;;;6.73;100.00
54936;BME280;40838;50.676;7.838;2023-02-23T13:36:19;98063.63;;;6.97;100.00
54936;BME280;40838;50.676;7.838;2023-02-23T13:39:00;98059.47;;;6.54;100.00